createdAt,value
2023-03-04T00:00:30.576Z,0.60
2023-03-04T00:02:57.607Z,0.60
2023-03-04T00:05:24.519Z,0.60
2023-03-04T00:07:51.559Z,0.60
2023-03-04T00:10:18.568Z,0.60
2023-03-04T00:13:17.033Z,0.60
2023-03-04T00:15:43.955Z,0.60
2023-03-04T00:18:10.889Z,0.70
2023-03-04T00:20:37.805Z,0.70
2023-03-04T00:23:04.717Z,0.70
2023-03-04T00:25:31.976Z,0.70
2023-03-04T00:27:58.993Z,0.70
2023-03-04T00:30:26.301Z,0.70
2023-03-04T00:32:53.205Z,0.70
2023-03-04T00:35:20.268Z,0.70
2023-03-04T00:37:47.291Z,0.70
2023-03-04T00:40:14.289Z,0.70
2023-03-04T00:42:41.222Z,0.70
2023-03-04T00:45:09.032Z,0.70
2023-03-04T00:47:36.027Z,0.70
2023-03-04T00:50:03.128Z,0.70
2023-03-04T00:52:30.221Z,0.70
2023-03-04T00:54:57.144Z,0.70
2023-03-04T00:57:24.142Z,0.60
2023-03-04T00:59:51.334Z,0.70
2023-03-04T01:02:18.282Z,0.70
2023-03-04T01:04:45.291Z,0.70
2023-03-04T01:07:12.284Z,0.80
2023-03-04T01:09:39.441Z,0.80
2023-03-04T01:12:06.447Z,0.80
2023-03-04T01:14:33.382Z,0.80
2023-03-04T01:17:00.465Z,0.80
2023-03-04T01:19:27.419Z,0.80
2023-03-04T01:21:54.358Z,0.80
2023-03-04T01:24:22.208Z,0.80
2023-03-04T01:26:49.142Z,0.80
2023-03-04T01:29:16.058Z,0.80
2023-03-04T01:31:43.017Z,0.80
2023-03-04T01:34:10.051Z,0.70
2023-03-04T01:36:37.135Z,0.80
2023-03-04T01:39:04.648Z,0.90
2023-03-04T01:41:31.722Z,0.90
2023-03-04T01:44:00.949Z,0.90
2023-03-04T01:46:28.256Z,0.90
2023-03-04T01:48:55.401Z,0.90
2023-03-04T01:51:22.546Z,0.80
2023-03-04T01:53:53.417Z,0.80
2023-03-04T01:56:26.476Z,0.80
2023-03-04T01:59:11.890Z,0.80
2023-03-04T02:01:44.559Z,0.80
2023-03-04T02:04:12.016Z,0.80
2023-03-04T02:06:39.756Z,0.80
2023-03-04T02:09:18.166Z,0.80
2023-03-04T02:11:46.191Z,0.90
2023-03-04T02:14:13.253Z,0.90
2023-03-04T02:16:43.967Z,0.90
2023-03-04T02:19:16.294Z,0.90
2023-03-04T02:21:43.346Z,0.90
2023-03-04T02:24:21.880Z,0.90
2023-03-04T02:27:15.426Z,0.90
2023-03-04T02:29:42.437Z,0.90
2023-03-04T02:32:11.349Z,0.90
2023-03-04T02:34:39.697Z,0.90
2023-03-04T02:37:06.804Z,1.00
2023-03-04T02:39:35.346Z,1.00
2023-03-04T02:42:03.747Z,1.00
2023-03-04T02:44:34.835Z,1.00
2023-03-04T02:47:05.670Z,1.00
2023-03-04T02:49:33.294Z,1.00
2023-03-04T02:52:03.351Z,1.00
2023-03-04T02:54:31.809Z,1.00
2023-03-04T02:57:00.117Z,1.00
2023-03-04T02:59:28.472Z,1.00
2023-03-04T03:01:56.377Z,1.00
2023-03-04T03:04:23.949Z,1.00
2023-03-04T03:06:53.125Z,1.00
2023-03-04T03:09:20.893Z,0.90
2023-03-04T03:11:48.021Z,0.90
2023-03-04T03:14:15.460Z,0.90
2023-03-04T03:16:43.597Z,1.00
2023-03-04T03:19:11.413Z,1.00
2023-03-04T03:21:39.180Z,1.00
2023-03-04T03:24:06.184Z,1.00
2023-03-04T03:26:33.139Z,1.10
2023-03-04T03:29:00.123Z,1.00
2023-03-04T03:31:28.624Z,1.00
2023-03-04T03:33:55.707Z,1.10
2023-03-04T03:36:22.668Z,1.10
2023-03-04T03:38:49.608Z,1.10
2023-03-04T03:41:16.593Z,1.00
2023-03-04T03:43:43.525Z,1.00
2023-03-04T03:46:10.555Z,1.10
2023-03-04T03:48:37.488Z,1.10
2023-03-04T03:51:04.479Z,1.10
2023-03-04T03:53:31.466Z,1.10
2023-03-04T03:55:59.276Z,1.10
2023-03-04T03:58:27.177Z,1.10
2023-03-04T04:00:55.434Z,1.10
2023-03-04T04:03:24.089Z,1.10
2023-03-04T04:05:51.067Z,1.10
2023-03-04T04:08:18.174Z,1.10
2023-03-04T04:10:45.135Z,1.20
2023-03-04T04:13:12.179Z,1.20
2023-03-04T04:15:39.208Z,1.10
2023-03-04T04:18:06.649Z,1.20
2023-03-04T04:20:33.666Z,1.10
2023-03-04T04:23:00.715Z,1.20
2023-03-04T04:25:27.691Z,1.30
2023-03-04T04:27:54.587Z,1.20
2023-03-04T04:30:21.587Z,1.20
2023-03-04T04:32:48.545Z,1.30
2023-03-04T04:35:15.612Z,1.20
2023-03-04T04:37:42.641Z,1.20
2023-03-04T04:40:10.002Z,1.20
2023-03-04T04:42:36.975Z,1.20
2023-03-04T04:45:04.038Z,1.30
2023-03-04T04:47:31.002Z,1.20
2023-03-04T04:49:58.102Z,1.20
2023-03-04T04:52:24.984Z,1.30
2023-03-04T04:54:51.951Z,1.30
2023-03-04T04:57:18.845Z,1.30
2023-03-04T04:59:45.803Z,1.30
2023-03-04T05:02:12.739Z,1.30
2023-03-04T05:04:39.664Z,1.30
2023-03-04T05:07:06.607Z,1.30
2023-03-04T05:09:33.723Z,1.30
2023-03-04T05:12:00.620Z,1.30
2023-03-04T05:14:27.540Z,1.30
2023-03-04T05:16:54.570Z,1.30
2023-03-04T05:19:21.542Z,1.30
2023-03-04T05:21:48.451Z,1.30
2023-03-04T05:24:15.468Z,1.30
2023-03-04T05:26:42.429Z,1.30
2023-03-04T05:29:09.372Z,1.40
2023-03-04T05:31:36.371Z,1.40
2023-03-04T05:34:03.452Z,1.40
2023-03-04T05:36:30.440Z,1.40
2023-03-04T05:38:57.409Z,1.40
2023-03-04T05:41:24.381Z,1.50
2023-03-04T05:43:51.576Z,1.50
2023-03-04T05:46:19.326Z,1.50
2023-03-04T05:48:46.453Z,1.50
2023-03-04T05:51:13.365Z,1.50
2023-03-04T05:53:41.548Z,1.60
2023-03-04T05:56:12.295Z,1.60
2023-03-04T05:58:39.260Z,1.60
2023-03-04T06:01:06.571Z,1.60
2023-03-04T06:03:33.757Z,1.60
2023-03-04T06:06:00.780Z,1.60
2023-03-04T06:08:27.998Z,1.70
2023-03-04T06:10:56.274Z,1.60
2023-03-04T06:13:23.591Z,1.60
2023-03-04T06:15:54.523Z,1.70
2023-03-04T06:18:21.805Z,1.70
2023-03-04T06:20:48.752Z,1.70
2023-03-04T06:23:15.749Z,1.70
2023-03-04T06:25:42.958Z,1.70
2023-03-04T06:28:09.867Z,1.70
2023-03-04T06:30:37.186Z,1.70
2023-03-04T06:33:04.178Z,1.80
2023-03-04T06:35:31.132Z,1.80
2023-03-04T06:37:58.252Z,1.80
2023-03-04T06:40:25.189Z,1.80
2023-03-04T06:42:52.132Z,1.80
2023-03-04T06:45:19.161Z,1.80
2023-03-04T06:47:46.186Z,1.80
2023-03-04T06:50:13.214Z,1.80
2023-03-04T06:52:40.245Z,1.80
2023-03-04T06:55:07.644Z,1.80
2023-03-04T06:57:34.598Z,1.80
2023-03-04T07:00:03.459Z,1.80
2023-03-04T07:02:30.525Z,1.80
2023-03-04T07:04:57.549Z,1.90
2023-03-04T07:07:26.272Z,1.90
2023-03-04T07:09:53.258Z,1.90
2023-03-04T07:12:20.204Z,1.90
2023-03-04T07:14:47.198Z,2.00
2023-03-04T07:17:14.136Z,1.90
2023-03-04T07:19:41.962Z,2.00
2023-03-04T07:22:09.001Z,2.00
2023-03-04T07:24:36.065Z,2.00
2023-03-04T07:27:03.074Z,2.00
2023-03-04T07:29:29.998Z,2.10
2023-03-04T07:31:57.117Z,2.00
2023-03-04T07:34:24.116Z,2.00
2023-03-04T07:36:51.117Z,2.00
2023-03-04T07:39:18.052Z,2.00
2023-03-04T07:41:45.036Z,2.00
2023-03-04T07:44:13.429Z,2.00
2023-03-04T07:46:40.812Z,2.00
2023-03-04T07:49:08.076Z,2.10
2023-03-04T07:51:35.796Z,2.10
2023-03-04T07:54:02.920Z,2.10
2023-03-04T07:56:31.613Z,2.10
2023-03-04T07:58:58.911Z,2.10
2023-03-04T08:01:27.227Z,2.10
2023-03-04T08:03:54.185Z,2.20
2023-03-04T08:06:21.935Z,2.20
2023-03-04T08:08:49.747Z,2.20
2023-03-04T08:11:18.326Z,2.20
2023-03-04T08:13:45.498Z,2.20
2023-03-04T08:16:15.665Z,2.20
2023-03-04T08:18:44.097Z,2.20
2023-03-04T08:21:11.999Z,2.20
2023-03-04T08:23:39.261Z,2.20
2023-03-04T08:26:08.273Z,2.20
2023-03-04T08:28:35.593Z,2.20
2023-03-04T08:31:02.529Z,2.20
2023-03-04T08:33:29.816Z,2.20
2023-03-04T08:35:56.903Z,2.30
2023-03-04T08:38:23.874Z,2.30
2023-03-04T08:40:57.004Z,2.40
2023-03-04T08:43:24.781Z,2.40
2023-03-04T08:45:52.898Z,2.40
2023-03-04T08:48:20.365Z,2.50
2023-03-04T08:50:47.920Z,2.60
2023-03-04T08:53:15.078Z,2.60
2023-03-04T08:55:42.498Z,2.70
2023-03-04T08:58:09.574Z,2.70
2023-03-04T09:00:37.607Z,2.70
2023-03-04T09:03:04.947Z,2.70
2023-03-04T09:05:32.436Z,2.80
2023-03-04T09:07:59.339Z,2.80
2023-03-04T09:10:26.341Z,2.80
2023-03-04T09:12:53.303Z,2.80
2023-03-04T09:15:20.345Z,2.80
2023-03-04T09:17:47.269Z,2.90
2023-03-04T09:20:14.220Z,2.90
2023-03-04T09:22:41.802Z,3.00
2023-03-04T09:25:12.828Z,3.00
2023-03-04T09:27:40.201Z,3.00
2023-03-04T09:30:07.810Z,3.00
2023-03-04T09:32:34.843Z,3.00
2023-03-04T09:35:01.956Z,3.10
2023-03-04T09:37:29.196Z,3.10
2023-03-04T09:39:56.136Z,3.10
2023-03-04T09:42:28.639Z,3.10
2023-03-04T09:44:55.932Z,3.20
2023-03-04T09:47:23.799Z,3.10
2023-03-04T09:49:58.217Z,3.10
2023-03-04T09:52:28.205Z,3.10
2023-03-04T09:55:05.172Z,3.20
2023-03-04T09:57:47.426Z,3.20
2023-03-04T10:00:20.196Z,3.20
2023-03-04T10:03:02.660Z,3.30
2023-03-04T10:05:32.037Z,3.30
2023-03-04T10:08:00.654Z,3.30
2023-03-04T10:10:32.522Z,3.30
2023-03-04T10:13:00.247Z,3.30
2023-03-04T10:15:30.279Z,3.30
2023-03-04T10:18:02.568Z,3.30
2023-03-04T10:20:39.055Z,3.40
2023-03-04T10:23:10.173Z,3.40
2023-03-04T10:25:38.889Z,3.40
2023-03-04T10:28:13.404Z,3.40
2023-03-04T10:30:45.132Z,3.40
2023-03-04T10:33:13.369Z,3.40
2023-03-04T10:35:41.580Z,3.60
2023-03-04T10:38:10.025Z,3.50
2023-03-04T10:40:38.346Z,3.60
2023-03-04T10:43:08.294Z,3.60
2023-03-04T10:45:39.055Z,3.60
2023-03-04T10:48:06.184Z,3.60
2023-03-04T10:50:33.158Z,3.70
2023-03-04T10:53:00.191Z,3.70
2023-03-04T10:55:41.538Z,3.80
2023-03-04T10:58:13.768Z,3.90
2023-03-04T11:00:40.823Z,4.00
2023-03-04T11:03:27.947Z,4.00
2023-03-04T11:06:14.947Z,4.00
2023-03-04T11:08:41.908Z,4.10
2023-03-04T11:11:25.576Z,4.10
2023-03-04T11:13:53.787Z,4.20
2023-03-04T11:16:28.624Z,4.30
2023-03-04T11:18:58.608Z,4.40
2023-03-04T11:21:28.875Z,4.30
2023-03-04T11:23:55.796Z,4.20
2023-03-04T11:26:30.634Z,4.10
2023-03-04T11:29:12.969Z,4.10
2023-03-04T11:31:43.460Z,4.20
2023-03-04T11:34:19.627Z,4.10
2023-03-04T11:37:06.201Z,4.10
2023-03-04T11:39:35.883Z,4.10
2023-03-04T11:42:11.962Z,4.30
2023-03-04T11:44:39.538Z,4.50
2023-03-04T11:47:32.837Z,4.70
2023-03-04T11:50:03.302Z,4.70
2023-03-04T11:52:42.197Z,4.70
2023-03-04T11:55:09.179Z,4.70
2023-03-04T11:58:05.445Z,4.60
2023-03-04T12:00:32.456Z,4.60
2023-03-04T12:03:02.445Z,4.60
2023-03-04T12:05:30.716Z,4.60
2023-03-04T12:08:08.644Z,4.60
2023-03-04T12:10:49.642Z,4.60
2023-03-04T12:13:16.984Z,4.60
2023-03-04T12:15:43.998Z,4.50
2023-03-04T12:18:20.520Z,4.50
2023-03-04T12:20:47.513Z,4.60
2023-03-04T12:23:34.621Z,4.80
2023-03-04T12:26:15.018Z,4.80
2023-03-04T12:29:17.251Z,4.90
2023-03-04T12:31:46.441Z,4.80
2023-03-04T12:34:29.073Z,4.70
2023-03-04T12:37:05.346Z,4.70
2023-03-04T12:39:51.347Z,4.60
2023-03-04T12:42:27.535Z,4.70
2023-03-04T12:45:17.750Z,4.70
2023-03-04T12:48:03.511Z,4.80
2023-03-04T12:50:40.415Z,4.80
2023-03-04T12:53:25.856Z,4.80
2023-03-04T12:55:55.500Z,4.80
2023-03-04T12:58:25.670Z,4.70
2023-03-04T13:00:55.884Z,4.70
2023-03-04T13:03:29.132Z,4.70
2023-03-04T13:06:03.990Z,4.70
2023-03-04T13:08:49.296Z,4.70
2023-03-04T13:11:42.483Z,4.70
2023-03-04T13:14:17.438Z,4.70
2023-03-04T13:16:45.361Z,4.70
2023-03-04T13:19:31.189Z,4.60
2023-03-04T13:21:58.184Z,4.60
2023-03-04T13:24:45.580Z,4.60
2023-03-04T13:27:31.261Z,4.70
2023-03-04T13:29:58.249Z,4.60
2023-03-04T13:32:35.818Z,4.70
2023-03-04T13:35:03.038Z,4.70
2023-03-04T13:37:34.851Z,4.70
2023-03-04T13:40:20.698Z,4.70
2023-03-04T13:42:47.699Z,4.70
2023-03-04T13:45:33.310Z,4.60
2023-03-04T13:48:00.761Z,4.70
2023-03-04T13:50:28.240Z,4.70
2023-03-04T13:52:55.545Z,4.70
2023-03-04T13:55:34.602Z,4.80
2023-03-04T13:58:02.292Z,4.90
2023-03-04T14:00:29.374Z,4.90
2023-03-04T14:02:56.299Z,5.00
2023-03-04T14:05:23.239Z,5.10
2023-03-04T14:07:50.156Z,5.10
2023-03-04T14:10:17.058Z,5.10
2023-03-04T14:12:49.089Z,5.00
2023-03-04T14:15:16.123Z,5.00
2023-03-04T14:17:48.624Z,5.00
2023-03-04T14:20:35.604Z,5.00
2023-03-04T14:23:04.208Z,5.10
2023-03-04T14:25:32.716Z,5.10
2023-03-04T14:28:04.983Z,5.10
2023-03-04T14:30:42.335Z,5.10
2023-03-04T14:33:15.859Z,5.10
2023-03-04T14:35:46.728Z,5.00
2023-03-04T14:38:20.099Z,4.90
2023-03-04T14:40:49.997Z,4.90
2023-03-04T14:43:23.705Z,4.90
2023-03-04T14:45:52.760Z,4.90
2023-03-04T14:48:22.862Z,4.90
2023-03-04T14:50:50.555Z,4.90
2023-03-04T14:53:18.876Z,5.00
2023-03-04T14:56:01.195Z,5.00
2023-03-04T14:58:29.900Z,5.00
2023-03-04T15:01:04.759Z,5.00
2023-03-04T15:03:32.260Z,5.00
2023-03-04T15:06:18.211Z,5.00
2023-03-04T15:08:45.810Z,5.00
2023-03-04T15:11:32.349Z,5.00
2023-03-04T15:14:00.105Z,5.00
2023-03-04T15:16:28.770Z,5.00
2023-03-04T15:18:58.798Z,5.00
2023-03-04T15:21:34.033Z,5.00
2023-03-04T15:24:03.376Z,5.00
2023-03-04T15:26:34.100Z,5.00
2023-03-04T15:29:01.121Z,5.00
2023-03-04T15:31:29.349Z,5.00
2023-03-04T15:33:56.313Z,4.90
2023-03-04T15:36:23.478Z,4.90
2023-03-04T15:38:51.721Z,4.80
2023-03-04T15:41:23.372Z,4.80
2023-03-04T15:43:50.630Z,4.80
2023-03-04T15:46:18.114Z,4.80
2023-03-04T15:48:45.762Z,4.70
2023-03-04T15:51:30.852Z,4.70
2023-03-04T15:53:58.740Z,4.80
2023-03-04T15:56:29.740Z,4.80
2023-03-04T15:59:03.757Z,4.80
2023-03-04T16:01:30.958Z,4.70
2023-03-04T16:03:58.189Z,4.70
2023-03-04T16:06:27.732Z,4.70
2023-03-04T16:08:54.962Z,4.70
2023-03-04T16:11:29.721Z,4.70
2023-03-04T16:13:56.679Z,4.70
2023-03-04T16:16:23.790Z,4.70
2023-03-04T16:18:50.748Z,4.70
2023-03-04T16:21:19.432Z,4.70
2023-03-04T16:23:47.950Z,4.70
2023-03-04T16:26:17.362Z,4.60
2023-03-04T16:28:44.337Z,4.60
2023-03-04T16:31:12.841Z,4.60
2023-03-04T16:33:39.848Z,4.60
2023-03-04T16:36:26.915Z,4.50
2023-03-04T16:38:57.905Z,4.60
2023-03-04T16:41:26.316Z,4.50
2023-03-04T16:43:55.200Z,4.50
2023-03-04T16:46:22.886Z,4.50
2023-03-04T16:48:49.870Z,4.50
2023-03-04T16:51:18.184Z,4.50
2023-03-04T16:53:48.383Z,4.50
2023-03-04T16:56:16.850Z,4.50
2023-03-04T16:58:43.862Z,4.50
2023-03-04T17:01:31.033Z,4.50
2023-03-04T17:03:57.946Z,4.50
2023-03-04T17:06:25.273Z,4.50
2023-03-04T17:08:52.169Z,4.40
2023-03-04T17:11:20.557Z,4.40
2023-03-04T17:13:47.819Z,4.40
2023-03-04T17:16:15.471Z,4.40
2023-03-04T17:18:44.305Z,4.40
2023-03-04T17:21:12.857Z,4.40
2023-03-04T17:23:39.843Z,4.40
2023-03-04T17:26:06.747Z,4.40
2023-03-04T17:28:33.746Z,4.40
2023-03-04T17:31:00.776Z,4.40
2023-03-04T17:33:27.701Z,4.30
2023-03-04T17:35:54.777Z,4.40
2023-03-04T17:38:21.742Z,4.40
2023-03-04T17:40:48.640Z,4.40
2023-03-04T17:43:15.548Z,4.40
2023-03-04T17:45:42.593Z,4.30
2023-03-04T17:48:15.434Z,4.30
2023-03-04T17:50:52.403Z,4.30
2023-03-04T17:53:19.724Z,4.40
2023-03-04T17:55:50.734Z,4.30
2023-03-04T17:58:17.754Z,4.40
2023-03-04T18:00:44.678Z,4.30
2023-03-04T18:03:12.467Z,4.30
2023-03-04T18:05:39.667Z,4.30
2023-03-04T18:08:07.031Z,4.30
2023-03-04T18:10:34.136Z,4.30
2023-03-04T18:13:01.085Z,4.30
2023-03-04T18:15:28.021Z,4.30
2023-03-04T18:17:55.065Z,4.30
2023-03-04T18:20:22.119Z,4.30
2023-03-04T18:22:49.237Z,4.30
2023-03-04T18:25:16.984Z,4.30
2023-03-04T18:27:44.006Z,4.30
2023-03-04T18:30:12.449Z,4.30
2023-03-04T18:32:51.469Z,4.30
2023-03-04T18:35:19.843Z,4.30
2023-03-04T18:37:47.106Z,4.20
2023-03-04T18:40:14.508Z,4.20
2023-03-04T18:42:44.246Z,4.20
2023-03-04T18:45:12.696Z,4.30
2023-03-04T18:47:43.184Z,4.20
2023-03-04T18:50:10.385Z,4.20
2023-03-04T18:52:37.364Z,4.20
2023-03-04T18:55:04.706Z,4.20
2023-03-04T18:57:31.798Z,4.20
2023-03-04T19:00:00.071Z,4.20
2023-03-04T19:02:36.001Z,4.30
2023-03-04T19:05:08.093Z,4.30
2023-03-04T19:07:35.070Z,4.20
2023-03-04T19:10:02.435Z,4.20
2023-03-04T19:12:30.262Z,4.30
2023-03-04T19:14:57.134Z,4.20
2023-03-04T19:17:25.767Z,4.30
2023-03-04T19:19:52.765Z,4.30
2023-03-04T19:22:19.663Z,4.20
2023-03-04T19:24:46.625Z,4.20
2023-03-04T19:27:13.526Z,4.20
2023-03-04T19:29:40.414Z,4.10
2023-03-04T19:32:07.399Z,4.10
2023-03-04T19:34:34.333Z,4.10
2023-03-04T19:37:01.392Z,3.90
2023-03-04T19:39:28.364Z,3.70
2023-03-04T19:41:55.388Z,3.50
2023-03-04T19:44:22.361Z,3.30
2023-03-04T19:46:49.366Z,3.30
2023-03-04T19:49:16.282Z,3.20
2023-03-04T19:51:43.274Z,3.20
2023-03-04T19:54:10.770Z,3.20
2023-03-04T19:56:37.696Z,3.20
2023-03-04T19:59:04.709Z,3.20
2023-03-04T20:01:35.644Z,3.20
2023-03-04T20:04:08.626Z,3.20
2023-03-04T20:06:36.735Z,3.20
2023-03-04T20:09:03.746Z,3.30
2023-03-04T20:11:31.403Z,3.30
2023-03-04T20:13:58.793Z,3.30
2023-03-04T20:16:25.998Z,3.30
2023-03-04T20:18:53.145Z,3.20
2023-03-04T20:21:20.116Z,3.20
2023-03-04T20:23:47.100Z,3.20
2023-03-04T20:26:14.078Z,3.20
2023-03-04T20:28:49.804Z,3.20
2023-03-04T20:31:19.910Z,3.20
2023-03-04T20:33:50.344Z,3.20
2023-03-04T20:36:17.946Z,3.20
2023-03-04T20:38:44.858Z,3.20
2023-03-04T20:41:12.189Z,3.20
2023-03-04T20:43:40.540Z,3.20
2023-03-04T20:46:26.666Z,3.10
2023-03-04T20:48:54.442Z,3.10
2023-03-04T20:51:21.360Z,3.10
2023-03-04T20:53:49.149Z,3.10
2023-03-04T20:56:16.381Z,3.10
2023-03-04T20:58:43.412Z,3.10
2023-03-04T21:01:10.362Z,3.10
2023-03-04T21:03:37.301Z,3.10
2023-03-04T21:06:04.934Z,3.10
2023-03-04T21:08:31.985Z,3.10
2023-03-04T21:10:58.945Z,3.10
2023-03-04T21:13:30.330Z,3.00
2023-03-04T21:15:57.930Z,3.00
2023-03-04T21:18:26.307Z,3.00
2023-03-04T21:20:53.989Z,2.90
2023-03-04T21:23:21.124Z,2.90
2023-03-04T21:25:48.854Z,2.90
2023-03-04T21:28:16.233Z,2.90
2023-03-04T21:30:43.277Z,2.90
2023-03-04T21:33:17.407Z,2.80
2023-03-04T21:35:44.571Z,2.90
2023-03-04T21:38:11.553Z,2.90
2023-03-04T21:40:38.696Z,2.90
2023-03-04T21:43:07.107Z,2.80
2023-03-04T21:45:34.121Z,2.80
2023-03-04T21:48:01.086Z,2.80
2023-03-04T21:50:28.021Z,2.80
2023-03-04T21:52:54.966Z,2.80
2023-03-04T21:55:21.875Z,2.70
2023-03-04T21:57:48.810Z,2.70
2023-03-04T22:00:16.807Z,2.70
2023-03-04T22:02:43.736Z,2.60
2023-03-04T22:05:10.741Z,2.70
2023-03-04T22:07:37.788Z,2.70
2023-03-04T22:10:06.797Z,2.70
2023-03-04T22:12:33.728Z,2.60
2023-03-04T22:15:00.792Z,2.60
2023-03-04T22:17:27.762Z,2.60
2023-03-04T22:19:55.439Z,2.60
2023-03-04T22:22:22.311Z,2.50
2023-03-04T22:24:49.289Z,2.50
2023-03-04T22:27:16.252Z,2.50
2023-03-04T22:29:43.201Z,2.50
2023-03-04T22:32:10.203Z,2.50
2023-03-04T22:34:37.127Z,2.40
2023-03-04T22:37:04.275Z,2.50
2023-03-04T22:39:31.206Z,2.40
2023-03-04T22:42:00.113Z,2.30
2023-03-04T22:44:27.047Z,2.20
2023-03-04T22:46:54.054Z,2.20
2023-03-04T22:49:21.050Z,2.10
2023-03-04T22:51:47.984Z,2.10
2023-03-04T22:54:16.011Z,2.10
2023-03-04T22:56:43.082Z,2.10
2023-03-04T22:59:10.170Z,2.10
2023-03-04T23:01:37.078Z,2.00
2023-03-04T23:04:04.109Z,2.10
2023-03-04T23:06:31.750Z,2.10
2023-03-04T23:08:59.055Z,2.10
2023-03-04T23:11:27.714Z,2.10
2023-03-04T23:13:55.081Z,2.00
2023-03-04T23:16:22.466Z,2.00
2023-03-04T23:18:49.502Z,2.10
2023-03-04T23:21:20.944Z,2.20
2023-03-04T23:23:48.161Z,2.20
2023-03-04T23:26:25.847Z,2.20
2023-03-04T23:28:53.397Z,2.20
2023-03-04T23:31:20.344Z,2.20
2023-03-04T23:33:47.863Z,2.10
2023-03-04T23:36:16.679Z,2.10
2023-03-04T23:38:44.304Z,2.10
2023-03-04T23:41:15.454Z,2.10
2023-03-04T23:43:42.461Z,2.10
2023-03-04T23:46:11.726Z,2.10
2023-03-04T23:48:39.369Z,2.00
2023-03-04T23:51:06.401Z,2.00
2023-03-04T23:53:34.547Z,2.00
2023-03-04T23:56:01.470Z,2.00
2023-03-04T23:58:28.454Z,2.00
